createdAt,value
2019-02-24T00:01:43.577Z,12.17
2019-02-24T00:04:11.977Z,13.40
2019-02-24T00:06:40.421Z,12.67
2019-02-24T00:09:08.853Z,13.40
2019-02-24T00:11:37.283Z,12.47
2019-02-24T00:14:05.685Z,14.33
2019-02-24T00:16:34.125Z,13.43
2019-02-24T00:19:03.782Z,11.43
2019-02-24T00:21:32.359Z,14.33
2019-02-24T00:24:00.768Z,14.10
2019-02-24T00:26:29.161Z,13.50
2019-02-24T00:28:57.642Z,15.80
2019-02-24T00:31:26.094Z,16.70
2019-02-24T00:33:54.497Z,12.97
2019-02-24T00:36:23.154Z,14.50
2019-02-24T00:38:51.572Z,14.23
2019-02-24T00:41:19.974Z,12.53
2019-02-24T00:43:48.589Z,14.40
2019-02-24T00:46:17.010Z,14.43
2019-02-24T00:48:45.411Z,11.93
2019-02-24T00:51:13.858Z,13.20
2019-02-24T00:53:42.255Z,12.83
2019-02-24T00:56:10.694Z,12.03
2019-02-24T00:58:39.189Z,13.63
2019-02-24T01:01:07.591Z,12.83
2019-02-24T01:03:36.036Z,12.50
2019-02-24T01:06:04.428Z,14.43
2019-02-24T01:08:32.834Z,19.17
2019-02-24T01:11:01.270Z,11.97
2019-02-24T01:13:29.670Z,12.67
2019-02-24T01:15:58.113Z,13.83
2019-02-24T01:18:26.561Z,13.00
2019-02-24T01:20:54.976Z,12.60
2019-02-24T01:23:23.387Z,14.47
2019-02-24T01:25:51.834Z,15.30
2019-02-24T01:28:25.334Z,15.70
2019-02-24T01:30:50.404Z,14.17
2019-02-24T01:33:18.845Z,14.43
2019-02-24T01:35:47.251Z,14.53
2019-02-24T01:38:15.647Z,14.63
2019-02-24T01:40:44.098Z,14.80
2019-02-24T01:43:12.489Z,13.10
2019-02-24T01:45:40.898Z,16.53
2019-02-24T01:48:09.342Z,13.87
2019-02-24T01:50:37.744Z,14.33
2019-02-24T01:53:06.192Z,15.43
2019-02-24T01:55:34.626Z,15.40
2019-02-24T01:58:03.041Z,13.63
2019-02-24T02:00:31.828Z,16.47
2019-02-24T02:03:00.229Z,14.10
2019-02-24T02:05:28.633Z,13.20
2019-02-24T02:07:57.082Z,13.80
2019-02-24T02:10:25.486Z,14.40
2019-02-24T02:12:53.886Z,15.63
2019-02-24T02:15:22.422Z,14.07
2019-02-24T02:17:50.820Z,14.30
2019-02-24T02:20:19.207Z,13.87
2019-02-24T02:22:47.662Z,13.77
2019-02-24T02:25:16.062Z,12.87
2019-02-24T02:27:44.449Z,14.90
2019-02-24T02:30:13.098Z,12.27
2019-02-24T02:32:41.940Z,12.47
2019-02-24T02:35:10.332Z,10.87
2019-02-24T02:37:38.908Z,13.40
2019-02-24T02:40:08.361Z,14.73
2019-02-24T02:42:36.828Z,11.43
2019-02-24T02:45:07.751Z,14.37
2019-02-24T02:47:36.199Z,13.77
2019-02-24T02:50:05.333Z,13.60
2019-02-24T02:52:33.762Z,11.27
2019-02-24T02:55:02.264Z,12.83
2019-02-24T02:57:30.743Z,13.10
2019-02-24T02:59:59.178Z,12.30
2019-02-24T03:02:27.580Z,12.60
2019-02-24T03:04:56.072Z,11.43
2019-02-24T03:07:29.138Z,12.80
2019-02-24T03:09:57.544Z,11.60
2019-02-24T03:12:25.936Z,15.77
2019-02-24T03:14:54.371Z,11.40
2019-02-24T03:17:22.769Z,11.83
2019-02-24T03:19:51.171Z,14.97
2019-02-24T03:22:19.606Z,13.17
2019-02-24T03:24:48.013Z,12.93
2019-02-24T03:27:16.406Z,13.63
2019-02-24T03:29:44.827Z,12.67
2019-02-24T03:32:13.236Z,12.50
2019-02-24T03:34:41.646Z,12.03
2019-02-24T03:37:10.435Z,10.93
2019-02-24T03:39:38.824Z,10.77
2019-02-24T03:42:07.226Z,11.33
2019-02-24T03:44:35.654Z,10.97
2019-02-24T03:47:04.052Z,10.70
2019-02-24T03:49:32.445Z,12.77
2019-02-24T03:52:01.024Z,11.40
2019-02-24T03:54:29.509Z,11.50
2019-02-24T03:56:57.900Z,10.87
2019-02-24T03:59:26.354Z,11.60
2019-02-24T04:01:54.836Z,11.80
2019-02-24T04:04:23.222Z,10.13
2019-02-24T04:06:51.696Z,11.33
2019-02-24T04:09:20.170Z,11.80
2019-02-24T04:11:48.564Z,10.37
2019-02-24T04:14:16.987Z,13.13
2019-02-24T04:16:45.423Z,10.73
2019-02-24T04:19:13.885Z,9.10
2019-02-24T04:21:42.280Z,11.23
2019-02-24T04:24:10.720Z,9.63
2019-02-24T04:26:39.141Z,10.10
2019-02-24T04:29:07.532Z,10.00
2019-02-24T04:31:36.319Z,9.53
2019-02-24T04:34:04.702Z,11.33
2019-02-24T04:36:33.092Z,10.70
2019-02-24T04:39:01.752Z,11.70
2019-02-24T04:41:30.223Z,10.40
2019-02-24T04:43:58.607Z,9.97
2019-02-24T04:46:27.293Z,12.87
2019-02-24T04:48:55.764Z,10.10
2019-02-24T04:51:24.253Z,13.60
2019-02-24T04:53:52.683Z,12.30
2019-02-24T04:56:21.077Z,11.70
2019-02-24T04:58:49.702Z,12.93
2019-02-24T05:01:18.100Z,13.80
2019-02-24T05:03:46.489Z,11.97
2019-02-24T05:06:14.946Z,13.23
2019-02-24T05:08:43.334Z,11.93
2019-02-24T05:11:11.729Z,14.30
2019-02-24T05:13:40.160Z,13.17
2019-02-24T05:16:08.587Z,13.13
2019-02-24T05:18:37.040Z,15.20
2019-02-24T05:21:05.453Z,14.53
2019-02-24T05:23:33.889Z,14.03
2019-02-24T05:26:02.283Z,13.37
2019-02-24T05:28:30.709Z,13.17
2019-02-24T05:30:59.109Z,13.33
2019-02-24T05:33:27.912Z,13.10
2019-02-24T05:35:56.306Z,14.30
2019-02-24T05:38:24.694Z,12.63
2019-02-24T05:40:53.138Z,11.00
2019-02-24T05:43:21.520Z,12.47
2019-02-24T05:45:49.912Z,11.87
2019-02-24T05:48:18.342Z,14.53
2019-02-24T05:50:46.735Z,15.13
2019-02-24T05:53:15.136Z,14.50
2019-02-24T05:55:43.589Z,12.07
2019-02-24T05:58:12.012Z,11.93
2019-02-24T06:00:40.393Z,15.03
2019-02-24T06:03:08.824Z,13.13
2019-02-24T06:05:37.234Z,14.40
2019-02-24T06:08:06.003Z,11.73
2019-02-24T06:10:34.401Z,11.00
2019-02-24T06:13:02.791Z,13.10
2019-02-24T06:15:31.233Z,12.53
2019-02-24T06:17:59.628Z,12.77
2019-02-24T06:20:28.034Z,14.03
2019-02-24T06:22:56.713Z,13.70
2019-02-24T06:25:25.193Z,12.03
2019-02-24T06:27:53.581Z,14.63
2019-02-24T06:30:22.087Z,13.30
2019-02-24T06:32:50.519Z,12.77
2019-02-24T06:35:18.943Z,12.70
2019-02-24T06:37:47.352Z,12.77
2019-02-24T06:40:15.751Z,13.00
2019-02-24T06:42:44.250Z,12.37
2019-02-24T06:45:12.683Z,11.40
2019-02-24T06:47:41.097Z,13.03
2019-02-24T06:50:10.224Z,12.90
2019-02-24T06:52:38.678Z,12.73
2019-02-24T06:55:08.629Z,12.85
2019-02-24T06:57:37.076Z,12.47
2019-02-24T07:00:14.175Z,13.70
2019-02-24T07:02:38.482Z,11.73
2019-02-24T07:05:08.603Z,12.70
2019-02-24T07:07:37.352Z,14.10
2019-02-24T07:10:06.980Z,11.27
2019-02-24T07:12:35.368Z,13.67
2019-02-24T07:15:06.540Z,11.50
2019-02-24T07:17:34.938Z,12.03
2019-02-24T07:20:04.155Z,11.83
2019-02-24T07:22:32.589Z,11.67
2019-02-24T07:25:00.984Z,13.03
2019-02-24T07:27:29.381Z,13.63
2019-02-24T07:29:58.013Z,11.63
2019-02-24T07:32:26.405Z,12.47
2019-02-24T07:34:54.800Z,12.97
2019-02-24T07:37:23.452Z,10.43
2019-02-24T07:39:51.837Z,11.63
2019-02-24T07:42:20.228Z,12.87
2019-02-24T07:44:48.756Z,11.60
2019-02-24T07:47:17.172Z,12.87
2019-02-24T07:49:45.564Z,12.50
2019-02-24T07:52:14.008Z,11.27
2019-02-24T07:54:42.408Z,11.70
2019-02-24T07:57:10.858Z,11.77
2019-02-24T07:59:39.288Z,10.40
2019-02-24T08:02:07.677Z,9.33
2019-02-24T08:04:36.064Z,11.87
2019-02-24T08:07:04.512Z,10.80
2019-02-24T08:09:32.894Z,9.50
2019-02-24T08:12:01.280Z,9.20
2019-02-24T08:14:29.917Z,9.47
2019-02-24T08:16:58.307Z,10.50
2019-02-24T08:19:26.712Z,9.60
2019-02-24T08:21:55.356Z,10.77
2019-02-24T08:24:23.753Z,9.80
2019-02-24T08:26:52.144Z,10.57
2019-02-24T08:29:20.581Z,12.47
2019-02-24T08:31:49.052Z,10.37
2019-02-24T08:34:17.444Z,11.67
2019-02-24T08:36:45.862Z,9.63
2019-02-24T08:39:14.293Z,10.80
2019-02-24T08:41:42.792Z,11.43
2019-02-24T08:44:11.181Z,11.23
2019-02-24T08:46:39.577Z,9.63
2019-02-24T08:49:08.175Z,9.00
2019-02-24T08:51:36.563Z,9.20
2019-02-24T08:54:04.983Z,9.13
2019-02-24T08:56:33.433Z,9.77
2019-02-24T08:59:01.820Z,9.67
2019-02-24T09:01:30.229Z,7.83
2019-02-24T09:03:58.653Z,9.60
2019-02-24T09:06:27.081Z,8.10
2019-02-24T09:08:55.468Z,8.60
2019-02-24T09:11:23.864Z,10.67
2019-02-24T09:13:52.292Z,9.83
2019-02-24T09:16:20.695Z,7.87
2019-02-24T09:18:49.080Z,10.83
2019-02-24T09:21:18.705Z,9.77
2019-02-24T09:23:47.144Z,8.97
2019-02-24T09:26:15.548Z,8.80
2019-02-24T09:28:43.980Z,9.37
2019-02-24T09:31:12.375Z,8.80
2019-02-24T09:33:40.775Z,9.97
2019-02-24T09:36:09.502Z,9.93
2019-02-24T09:38:38.049Z,8.50
2019-02-24T09:41:06.441Z,8.30
2019-02-24T09:43:34.912Z,8.27
2019-02-24T09:46:03.343Z,7.43
2019-02-24T09:48:31.866Z,10.07
2019-02-24T09:51:00.353Z,7.83
2019-02-24T10:01:11.816Z,6.57
2019-02-24T10:03:40.208Z,7.13
2019-02-24T10:06:08.706Z,7.23
2019-02-24T10:08:37.137Z,7.50
2019-02-24T10:11:05.549Z,8.13
2019-02-24T10:13:34.015Z,6.47
2019-02-24T10:16:02.440Z,5.97
2019-02-24T10:18:30.825Z,6.83
2019-02-24T10:20:59.220Z,6.17
2019-02-24T10:23:27.681Z,6.07
2019-02-24T10:25:56.087Z,6.13
2019-02-24T10:28:24.511Z,5.90
2019-02-24T10:30:53.055Z,5.90
2019-02-24T10:33:21.442Z,8.27
2019-02-24T10:35:49.836Z,7.83
2019-02-24T10:38:18.300Z,7.90
2019-02-24T10:40:46.710Z,6.73
2019-02-24T10:43:15.908Z,6.00
2019-02-24T10:45:45.295Z,7.30
2019-02-24T10:48:14.402Z,5.70
2019-02-24T10:50:42.924Z,5.67
2019-02-24T10:53:11.547Z,5.90
2019-02-24T10:55:41.901Z,6.30
2019-02-24T10:58:10.613Z,6.10
2019-02-24T11:00:39.382Z,6.33
2019-02-24T11:03:08.616Z,5.13
2019-02-24T11:05:37.140Z,5.50
2019-02-24T11:08:05.536Z,5.30
2019-02-24T11:10:33.976Z,6.90
2019-02-24T11:13:02.434Z,5.73
2019-02-24T11:15:31.047Z,5.53
2019-02-24T11:18:01.481Z,5.10
2019-02-24T11:20:29.986Z,5.23
2019-02-24T11:22:58.383Z,6.13
2019-02-24T11:25:27.753Z,5.83
2019-02-24T11:27:56.194Z,5.67
2019-02-24T11:30:24.589Z,4.63
2019-02-24T11:32:53.352Z,4.87
2019-02-24T11:35:21.755Z,4.80
2019-02-24T11:37:50.140Z,4.53
2019-02-24T11:40:19.012Z,6.23
2019-02-24T11:42:47.590Z,5.07
2019-02-24T11:45:16.058Z,5.17
2019-02-24T11:47:44.493Z,5.70
2019-02-24T11:50:13.368Z,5.50
2019-02-24T11:52:41.812Z,5.57
2019-02-24T11:55:11.175Z,4.97
2019-02-24T11:57:39.736Z,4.97
2019-02-24T12:00:11.573Z,5.57
2019-02-24T12:02:41.742Z,5.50
2019-02-24T12:05:10.306Z,5.00
2019-02-24T12:07:38.954Z,4.57
2019-02-24T12:10:10.385Z,6.63
2019-02-24T12:12:39.000Z,4.83
2019-02-24T12:15:10.716Z,4.60
2019-02-24T12:17:39.503Z,4.60
2019-02-24T12:20:10.724Z,5.10
2019-02-24T12:22:39.510Z,4.73
2019-02-24T12:25:12.496Z,4.97
2019-02-24T12:27:41.260Z,5.30
2019-02-24T12:30:12.229Z,4.67
2019-02-24T12:32:41.004Z,5.17
2019-02-24T12:35:09.943Z,4.73
2019-02-24T12:37:38.541Z,4.40
2019-02-24T12:40:14.661Z,4.65
2019-02-24T12:42:43.581Z,5.87
2019-02-24T12:45:12.785Z,4.33
2019-02-24T12:47:41.474Z,4.97
2019-02-24T12:50:15.086Z,4.80
2019-02-24T12:52:43.929Z,5.00
2019-02-24T12:55:12.981Z,5.30
2019-02-24T12:57:42.411Z,4.47
2019-02-24T13:00:15.932Z,4.43
2019-02-24T13:02:44.702Z,4.80
2019-02-24T13:05:13.485Z,7.17
2019-02-24T13:07:42.240Z,4.50
2019-02-24T13:10:15.944Z,4.37
2019-02-24T13:12:44.578Z,4.20
2019-02-24T13:15:13.389Z,5.60
2019-02-24T13:17:41.806Z,4.23
2019-02-24T13:20:11.297Z,4.30
2019-02-24T13:22:39.934Z,3.97
2019-02-24T13:25:12.324Z,5.53
2019-02-24T13:27:40.771Z,3.87
2019-02-24T13:30:14.881Z,3.33
2019-02-24T13:32:43.276Z,3.20
2019-02-24T13:35:11.704Z,3.30
2019-02-24T13:37:40.410Z,2.90
2019-02-24T13:40:16.116Z,4.47
2019-02-24T13:42:44.508Z,3.87
2019-02-24T13:45:18.666Z,3.07
2019-02-24T13:47:47.098Z,3.10
2019-02-24T13:50:16.127Z,3.27
2019-02-24T13:52:44.968Z,2.90
2019-02-24T13:55:14.640Z,3.20
2019-02-24T13:57:43.031Z,3.67
2019-02-24T14:00:19.334Z,4.17
2019-02-24T14:02:47.796Z,3.10
2019-02-24T14:05:16.204Z,3.73
2019-02-24T14:07:44.590Z,3.93
2019-02-24T14:10:14.155Z,3.53
2019-02-24T14:12:42.623Z,3.33
2019-02-24T14:15:13.010Z,3.20
2019-02-24T14:17:41.409Z,4.53
2019-02-24T14:20:12.942Z,3.53
2019-02-24T14:22:41.346Z,4.53
2019-02-24T14:25:13.677Z,3.47
2019-02-24T14:27:42.116Z,3.13
2019-02-24T14:30:15.224Z,3.47
2019-02-24T14:32:44.368Z,3.37
2019-02-24T14:35:26.474Z,3.97
2019-02-24T14:37:54.875Z,4.60
2019-02-24T14:40:23.269Z,3.37
2019-02-24T14:42:52.298Z,4.93
2019-02-24T14:45:22.225Z,3.80
2019-02-24T14:47:50.616Z,3.50
2019-02-24T14:50:19.089Z,3.67
2019-02-24T14:52:47.480Z,3.37
2019-02-24T14:55:16.218Z,4.57
2019-02-24T14:57:45.059Z,5.83
2019-02-24T15:00:15.958Z,3.87
2019-02-24T15:02:44.340Z,3.93
2019-02-24T15:05:16.377Z,3.50
2019-02-24T15:07:44.524Z,4.07
2019-02-24T15:10:24.005Z,4.00
2019-02-24T15:12:52.395Z,4.10
2019-02-24T15:15:33.129Z,4.13
2019-02-24T15:17:59.719Z,4.70
2019-02-24T15:20:28.117Z,4.73
2019-02-24T15:22:56.586Z,4.13
2019-02-24T15:25:25.018Z,3.80
2019-02-24T15:27:53.438Z,4.90
2019-02-24T15:30:27.458Z,4.23
2019-02-24T15:32:55.906Z,5.00
2019-02-24T15:35:24.300Z,4.33
2019-02-24T15:37:52.713Z,4.23
2019-02-24T15:40:21.153Z,3.83
2019-02-24T15:42:49.543Z,4.27
2019-02-24T15:45:17.942Z,6.57
2019-02-24T15:47:46.447Z,3.60
2019-02-24T15:50:15.486Z,5.80
2019-02-24T15:52:43.947Z,4.03
2019-02-24T15:55:16.488Z,4.13
2019-02-24T15:57:44.964Z,3.77
2019-02-24T16:00:26.250Z,3.87
2019-02-24T16:03:00.968Z,4.30
2019-02-24T16:05:24.779Z,3.97
2019-02-24T16:07:53.256Z,3.70
2019-02-24T16:10:22.815Z,3.43
2019-02-24T16:12:51.196Z,3.47
2019-02-24T16:15:22.358Z,4.43
2019-02-24T16:17:50.754Z,4.27
2019-02-24T16:20:27.661Z,4.13
2019-02-24T16:22:56.256Z,4.00
2019-02-24T16:25:24.689Z,3.87
2019-02-24T16:27:53.734Z,4.93
2019-02-24T16:30:22.161Z,3.43
2019-02-24T16:32:50.729Z,4.40
2019-02-24T16:35:19.130Z,8.77
2019-02-24T16:37:47.583Z,8.03
2019-02-24T16:40:23.444Z,4.87
2019-02-24T16:42:51.845Z,4.20
2019-02-24T16:45:20.565Z,4.27
2019-02-24T16:47:48.960Z,3.80
2019-02-24T16:50:26.588Z,4.37
2019-02-24T16:52:55.103Z,4.57
2019-02-24T16:55:23.502Z,5.40
2019-02-24T16:57:52.297Z,4.43
2019-02-24T17:00:25.285Z,4.33
2019-02-24T17:02:53.816Z,4.50
2019-02-24T17:05:22.558Z,6.60
2019-02-24T17:07:50.948Z,4.67
2019-02-24T17:10:20.689Z,4.83
2019-02-24T17:12:49.788Z,6.17
2019-02-24T17:15:18.183Z,4.97
2019-02-24T17:17:46.684Z,4.20
2019-02-24T17:20:18.161Z,4.20
2019-02-24T17:22:46.617Z,4.80
2019-02-24T17:25:15.053Z,4.60
2019-02-24T17:27:43.445Z,5.73
2019-02-24T17:30:13.982Z,16.83
2019-02-24T17:32:42.485Z,9.53
2019-02-24T17:35:11.853Z,5.47
2019-02-24T17:37:40.240Z,5.30
2019-02-24T17:40:19.256Z,5.30
2019-02-24T17:42:47.450Z,6.17
2019-02-24T17:45:16.034Z,7.83
2019-02-24T17:47:44.568Z,6.13
2019-02-24T17:50:16.707Z,4.90
2019-02-24T17:52:45.207Z,5.50
2019-02-24T17:55:17.567Z,6.17
2019-02-24T17:57:45.960Z,5.60
2019-02-24T18:00:28.744Z,9.33
2019-02-24T18:02:57.541Z,5.87
2019-02-24T18:05:25.943Z,7.03
2019-02-24T18:07:54.384Z,6.97
2019-02-24T18:10:22.861Z,5.77
2019-02-24T18:12:51.257Z,6.43
2019-02-24T18:15:19.764Z,7.13
2019-02-24T18:17:48.219Z,6.43
2019-02-24T18:20:18.888Z,7.83
2019-02-24T18:22:47.376Z,5.83
2019-02-24T18:25:15.780Z,6.73
2019-02-24T18:27:44.219Z,5.97
2019-02-24T18:30:21.260Z,6.77
2019-02-24T18:32:49.676Z,7.50
2019-02-24T18:35:18.112Z,9.00
2019-02-24T18:37:46.900Z,7.33
2019-02-24T18:40:15.932Z,7.40
2019-02-24T18:42:44.383Z,7.10
2019-02-24T18:45:14.281Z,7.07
2019-02-24T18:47:42.708Z,9.97
2019-02-24T18:50:15.598Z,7.93
2019-02-24T18:52:44.462Z,9.50
2019-02-24T18:55:13.695Z,8.60
2019-02-24T18:57:42.364Z,8.10
2019-02-24T19:00:18.415Z,10.80
2019-02-24T19:02:46.789Z,8.17
2019-02-24T19:05:15.180Z,7.40
2019-02-24T19:07:43.644Z,8.13
2019-02-24T19:10:21.347Z,7.57
2019-02-24T19:12:49.959Z,7.80
2019-02-24T19:15:22.509Z,8.13
2019-02-24T19:17:50.904Z,8.33
2019-02-24T19:20:20.698Z,7.80
2019-02-24T19:22:49.095Z,7.70
2019-02-24T19:25:17.680Z,5.83
2019-02-24T19:27:46.097Z,7.00
2019-02-24T19:30:19.159Z,7.47
2019-02-24T19:32:47.715Z,6.23
2019-02-24T19:35:17.192Z,8.10
2019-02-24T19:37:45.761Z,6.93
2019-02-24T19:40:18.524Z,6.77
2019-02-24T19:42:47.113Z,7.03
2019-02-24T19:45:17.439Z,5.87
2019-02-24T19:47:45.874Z,7.70
2019-02-24T19:50:16.671Z,9.07
2019-02-24T19:52:45.050Z,9.43
2019-02-24T19:55:17.542Z,8.20
2019-02-24T19:57:46.264Z,7.80
2019-02-24T20:00:22.811Z,12.23
2019-02-24T20:02:51.193Z,10.17
2019-02-24T20:05:20.328Z,9.33
2019-02-24T20:07:49.148Z,8.90
2019-02-24T20:10:27.748Z,8.53
2019-02-24T20:12:56.181Z,9.03
2019-02-24T20:15:24.571Z,7.33
2019-02-24T20:17:52.970Z,9.83
2019-02-24T20:20:21.389Z,9.37
2019-02-24T20:22:50.082Z,10.77
2019-02-24T20:25:20.428Z,7.27
2019-02-24T20:27:48.812Z,9.73
2019-02-24T20:30:25.792Z,10.13
2019-02-24T20:32:54.236Z,8.13
2019-02-24T20:35:22.711Z,7.10
2019-02-24T20:37:51.103Z,11.97
2019-02-24T20:40:19.534Z,6.43
2019-02-24T20:42:47.922Z,7.73
2019-02-24T20:45:20.531Z,7.53
2019-02-24T20:47:49.158Z,7.80
2019-02-24T20:50:19.688Z,9.17
2019-02-24T20:52:48.090Z,6.60
2019-02-24T20:55:16.710Z,6.47
2019-02-24T20:57:45.101Z,5.70
2019-02-24T21:00:19.509Z,7.53
2019-02-24T21:02:48.184Z,6.13
2019-02-24T21:05:16.580Z,8.93
2019-02-24T21:07:44.967Z,6.70
2019-02-24T21:10:13.564Z,7.03
2019-02-24T21:12:42.100Z,7.63
2019-02-24T21:15:12.980Z,6.73
2019-02-24T21:17:41.373Z,7.17
2019-02-24T21:20:15.922Z,6.23
2019-02-24T21:22:44.336Z,7.57
2019-02-24T21:25:12.929Z,7.67
2019-02-24T21:27:41.365Z,5.73
2019-02-24T21:30:15.291Z,6.47
2019-02-24T21:32:43.760Z,7.43
2019-02-24T21:35:12.792Z,6.83
2019-02-24T21:37:41.174Z,10.97
2019-02-24T21:40:12.184Z,8.70
2019-02-24T21:42:40.568Z,10.10
2019-02-24T21:45:11.717Z,10.47
2019-02-24T21:47:40.143Z,8.00
2019-02-24T21:50:11.627Z,8.80
2019-02-24T21:52:40.012Z,7.27
2019-02-24T21:55:10.191Z,8.90
2019-02-24T21:57:38.723Z,7.57
2019-02-24T22:00:13.072Z,10.18
2019-02-24T22:02:41.492Z,8.53
2019-02-24T22:05:11.269Z,8.07
2019-02-24T22:07:39.658Z,8.30
2019-02-24T22:10:12.702Z,7.77
2019-02-24T22:12:41.134Z,6.90
2019-02-24T22:15:12.756Z,10.43
2019-02-24T22:17:41.136Z,7.50
2019-02-24T22:20:10.324Z,9.37
2019-02-24T22:22:38.788Z,8.87
2019-02-24T22:25:10.631Z,12.10
2019-02-24T22:27:39.068Z,8.53
2019-02-24T22:30:11.519Z,11.17
2019-02-24T22:32:39.972Z,9.70
2019-02-24T22:35:09.236Z,7.93
2019-02-24T22:37:37.623Z,8.07
2019-02-24T22:40:09.160Z,7.30
2019-02-24T22:42:37.555Z,8.17
2019-02-24T22:45:08.977Z,8.07
2019-02-24T22:47:37.749Z,8.47
2019-02-24T22:50:08.883Z,10.10
2019-02-24T22:52:37.264Z,9.57
2019-02-24T22:55:13.105Z,9.50
2019-02-24T22:57:41.489Z,9.20
2019-02-24T23:00:13.004Z,7.63
2019-02-24T23:02:41.405Z,8.23
2019-02-24T23:05:11.341Z,7.83
2019-02-24T23:07:39.778Z,9.33
2019-02-24T23:10:08.233Z,8.70
2019-02-24T23:12:36.620Z,6.90
2019-02-24T23:15:06.679Z,7.07
2019-02-24T23:17:35.064Z,8.50
2019-02-24T23:20:04.965Z,9.40
2019-02-24T23:22:33.357Z,8.00
2019-02-24T23:25:01.746Z,8.90
2019-02-24T23:27:30.189Z,7.73
2019-02-24T23:29:58.579Z,8.43
2019-02-24T23:32:26.976Z,7.37
2019-02-24T23:34:55.400Z,10.97
2019-02-24T23:37:23.934Z,7.93
2019-02-24T23:39:52.325Z,8.53
2019-02-24T23:42:20.840Z,7.70
2019-02-24T23:44:49.252Z,8.87
2019-02-24T23:47:17.646Z,10.67
2019-02-24T23:49:46.060Z,8.07
2019-02-24T23:52:14.486Z,9.17
2019-02-24T23:54:42.909Z,8.73
2019-02-24T23:57:11.320Z,6.90
2019-02-24T23:59:39.748Z,8.10
